Time;durP1;ratioP1;P1;durP2;ratioP2;P2;SDS_P1;SDS_P2;PMS_P1;PMS_P2;Temp;Humidity;BMP_temperature;BMP_pressure;BME280_temperature;BME280_humidity;BME280_pressure;Samples;Min_cycle;Max_cycle;Signal;HPM_P1;HPM_P2
2023/05/09 00:01:58;;;;;;;23.90;6.65;;;;;;;;;;5052133;28;20056;-78
2023/05/09 00:04:24;;;;;;;33.05;6.70;;;;;;;;;;5052495;28;20040;-78
2023/05/09 00:06:50;;;;;;;76.97;6.38;;;;;;;;;;5051591;28;20045;-78
2023/05/09 00:09:15;;;;;;;44.80;6.38;;;;;;;;;;5051893;28;20031;-78
2023/05/09 00:11:41;;;;;;;24.35;7.03;;;;;;;;;;5051158;28;20032;-78
2023/05/09 00:14:07;;;;;;;26.35;6.82;;;;;;;;;;5051081;28;20048;-78
2023/05/09 00:16:32;;;;;;;24.50;6.47;;;;;;;;;;5051189;28;20035;-78
2023/05/09 00:18:59;;;;;;;29.13;6.22;;;;;;;;;;5052113;28;20076;-78
2023/05/09 00:21:24;;;;;;;56.38;6.70;;;;;;;;;;5050971;28;20043;-78
2023/05/09 00:23:50;;;;;;;39.92;6.85;;;;;;;;;;5047569;28;20452;-79
2023/05/09 00:26:16;;;;;;;24.80;6.43;;;;;;;;;;5052216;28;20040;-78
2023/05/09 00:28:41;;;;;;;27.42;6.20;;;;;;;;;;5050672;28;20033;-78
2023/05/09 00:31:07;;;;;;;30.38;6.82;;;;;;;;;;5052687;28;20044;-78
2023/05/09 00:33:32;;;;;;;30.58;6.75;;;;;;;;;;5048612;28;20100;-78
2023/05/09 00:35:57;;;;;;;24.00;6.85;;;;;;;;;;5046621;28;20068;-78
2023/05/09 00:38:23;;;;;;;20.35;7.13;;;;;;;;;;5051309;28;20086;-78
2023/05/09 00:40:48;;;;;;;24.35;6.78;;;;;;;;;;5043213;28;20037;-78
2023/05/09 00:43:15;;;;;;;21.63;6.72;;;;;;;;;;5051782;28;20072;-78
2023/05/09 00:45:41;;;;;;;23.83;7.65;;;;;;;;;;5050577;28;20060;-78
2023/05/09 00:48:06;;;;;;;36.67;7.72;;;;;;;;;;5050318;28;20765;-78
2023/05/09 00:50:32;;;;;;;29.08;8.13;;;;;;;;;;5051708;28;20044;-78
2023/05/09 00:52:57;;;;;;;28.25;8.27;;;;;;;;;;5050353;28;20068;-76
2023/05/09 00:55:22;;;;;;;39.03;7.28;;;;;;;;;;5051874;28;20033;-78
2023/05/09 00:57:48;;;;;;;41.17;8.20;;;;;;;;;;5051089;28;20618;-78
2023/05/09 01:00:14;;;;;;;43.67;7.43;;;;;;;;;;5050213;28;20037;-78
2023/05/09 01:02:45;;;;;;;50.95;7.22;;;;;;;;;;5048962;28;20037;-78
2023/05/09 01:05:11;;;;;;;22.15;6.72;;;;;;;;;;5034054;28;20064;-78
2023/05/09 01:07:41;;;;;;;32.33;7.38;;;;;;;;;;5050760;28;20547;-78
2023/05/09 01:10:22;;;;;;;205.43;10.93;;;;;;;;;;5051589;28;20480;-78
2023/05/09 01:13:05;;;;;;;19.55;6.65;;;;;;;;;;5037765;28;20041;-78
2023/05/09 01:15:54;;;;;;;148.43;9.50;;;;;;;;;;5046160;28;20090;-78
2023/05/09 01:18:33;;;;;;;37.63;7.88;;;;;;;;;;5051634;28;20098;-78
2023/05/09 01:21:07;;;;;;;43.00;7.97;;;;;;;;;;5051591;28;20037;-78
2023/05/09 01:23:45;;;;;;;36.15;8.13;;;;;;;;;;5054041;28;20040;-78
2023/05/09 01:26:13;;;;;;;36.42;7.70;;;;;;;;;;5051928;28;20040;-78
2023/05/09 01:29:33;;;;;;;35.80;7.85;;;;;;;;;;5053986;28;20736;-78
2023/05/09 01:32:02;;;;;;;60.88;8.43;;;;;;;;;;5029457;28;20045;-78
2023/05/09 01:34:28;;;;;;;181.95;9.48;;;;;;;;;;5045978;28;20045;-78
2023/05/09 01:36:56;;;;;;;197.45;10.98;;;;;;;;;;5053845;28;20033;-77
2023/05/09 01:39:23;;;;;;;159.85;10.90;;;;;;;;;;5054784;28;20078;-77
2023/05/09 01:41:49;;;;;;;106.32;9.20;;;;;;;;;;5053748;28;20068;-77
2023/05/09 01:44:15;;;;;;;119.38;7.55;;;;;;;;;;5037095;28;20404;-77
2023/05/09 01:46:41;;;;;;;116.00;8.13;;;;;;;;;;5053585;28;20037;-78
2023/05/09 01:49:08;;;;;;;106.20;7.20;;;;;;;;;;5049721;28;20047;-78
2023/05/09 01:51:34;;;;;;;98.40;7.43;;;;;;;;;;5053220;28;20116;-77
2023/05/09 01:54:00;;;;;;;105.47;7.05;;;;;;;;;;5053399;28;20191;-77
2023/05/09 01:56:26;;;;;;;93.85;6.93;;;;;;;;;;5053222;28;20037;-77
2023/05/09 01:58:51;;;;;;;89.18;7.15;;;;;;;;;;5053893;28;20045;-78
2023/05/09 02:01:18;;;;;;;88.35;7.03;;;;;;;;;;5052942;28;20024;-77
2023/05/09 02:03:45;;;;;;;113.55;8.45;;;;;;;;;;5053388;28;20037;-78
2023/05/09 02:06:10;;;;;;;170.45;9.95;;;;;;;;;;5052946;28;20586;-78
2023/05/09 02:08:36;;;;;;;140.85;8.50;;;;;;;;;;5054733;28;20094;-78
2023/05/09 02:11:01;;;;;;;145.00;8.35;;;;;;;;;;5053005;28;20069;-78
2023/05/09 02:13:26;;;;;;;110.63;7.32;;;;;;;;;;5053464;28;20060;-77
2023/05/09 02:15:52;;;;;;;97.70;6.57;;;;;;;;;;5053992;28;20029;-78
2023/05/09 02:18:17;;;;;;;79.18;6.32;;;;;;;;;;5054329;28;20448;-78
2023/05/09 02:20:43;;;;;;;107.50;7.05;;;;;;;;;;5053819;28;20037;-78
2023/05/09 02:23:08;;;;;;;96.55;7.35;;;;;;;;;;5053164;28;20479;-78
2023/05/09 02:25:34;;;;;;;81.47;7.13;;;;;;;;;;5052850;28;20044;-77
2023/05/09 02:27:59;;;;;;;97.78;9.13;;;;;;;;;;5053681;28;20041;-77
2023/05/09 02:30:26;;;;;;;107.45;6.90;;;;;;;;;;5052782;28;20048;-77
2023/05/09 02:32:58;;;;;;;74.53;6.40;;;;;;;;;;5048254;28;20506;-78
2023/05/09 02:35:25;;;;;;;53.83;6.75;;;;;;;;;;5052601;28;20041;-77
2023/05/09 02:37:50;;;;;;;111.03;7.90;;;;;;;;;;5052790;28;20128;-77
2023/05/09 02:40:17;;;;;;;90.28;7.43;;;;;;;;;;5049654;28;20112;-77
2023/05/09 02:42:42;;;;;;;84.57;7.75;;;;;;;;;;5052775;28;20075;-77
2023/05/09 02:45:09;;;;;;;84.50;6.82;;;;;;;;;;5039444;28;20065;-78
2023/05/09 02:47:34;;;;;;;94.18;6.55;;;;;;;;;;5052948;28;20047;-77
2023/05/09 02:50:00;;;;;;;98.93;7.00;;;;;;;;;;5051517;28;20404;-77
2023/05/09 02:52:25;;;;;;;80.45;5.82;;;;;;;;;;5053449;28;20112;-77
2023/05/09 02:54:51;;;;;;;66.80;5.85;;;;;;;;;;5053417;28;20041;-77
2023/05/09 02:57:16;;;;;;;69.55;5.28;;;;;;;;;;5053121;28;20045;-77
2023/05/09 02:59:41;;;;;;;65.18;5.25;;;;;;;;;;5053346;28;20442;-77
2023/05/09 03:02:07;;;;;;;33.05;4.22;;;;;;;;;;5053282;28;20441;-77
2023/05/09 03:04:32;;;;;;;55.17;4.70;;;;;;;;;;5053448;28;20029;-77
2023/05/09 03:06:57;;;;;;;68.43;5.45;;;;;;;;;;5053357;28;20461;-77
2023/05/09 03:09:23;;;;;;;52.97;5.78;;;;;;;;;;5053319;28;20040;-77
2023/05/09 03:11:49;;;;;;;76.85;6.15;;;;;;;;;;5051492;28;20040;-77
2023/05/09 03:14:14;;;;;;;52.85;4.65;;;;;;;;;;5041940;28;20029;-77
2023/05/09 03:16:39;;;;;;;69.72;5.38;;;;;;;;;;5053289;28;20037;-77
2023/05/09 03:19:05;;;;;;;63.55;5.60;;;;;;;;;;5052721;28;20044;-77
2023/05/09 03:21:31;;;;;;;55.55;5.68;;;;;;;;;;5053015;28;20377;-77
2023/05/09 03:23:57;;;;;;;147.68;7.93;;;;;;;;;;5051796;28;20040;-77
2023/05/09 03:26:22;;;;;;;23.45;4.40;;;;;;;;;;5052793;28;20071;-77
2023/05/09 03:28:48;;;;;;;59.42;5.03;;;;;;;;;;5051031;28;20060;-77
2023/05/09 03:31:14;;;;;;;37.75;4.88;;;;;;;;;;5052641;28;20040;-78
2023/05/09 03:33:39;;;;;;;59.42;5.13;;;;;;;;;;5053065;28;20037;-77
2023/05/09 03:36:05;;;;;;;104.05;6.60;;;;;;;;;;5052475;28;20043;-78
2023/05/09 03:38:30;;;;;;;82.68;5.60;;;;;;;;;;5052820;28;20075;-77
2023/05/09 03:40:56;;;;;;;86.50;5.50;;;;;;;;;;5052103;28;20040;-77
2023/05/09 03:43:21;;;;;;;101.47;5.93;;;;;;;;;;5052478;28;20037;-77
2023/05/09 03:45:46;;;;;;;61.10;5.20;;;;;;;;;;5050901;28;20465;-76
2023/05/09 03:48:12;;;;;;;41.78;4.45;;;;;;;;;;5052436;28;20040;-76
2023/05/09 03:50:37;;;;;;;61.00;5.22;;;;;;;;;;5052188;28;20036;-77
2023/05/09 03:53:03;;;;;;;32.80;5.13;;;;;;;;;;5052820;28;20064;-76
2023/05/09 03:55:28;;;;;;;68.05;5.72;;;;;;;;;;5052471;28;20041;-77
2023/05/09 03:57:54;;;;;;;56.08;5.45;;;;;;;;;;5043979;28;20459;-77
2023/05/09 04:00:20;;;;;;;57.00;5.88;;;;;;;;;;5050570;28;20112;-76
2023/05/09 04:02:46;;;;;;;100.53;6.60;;;;;;;;;;5052640;28;20474;-76
2023/05/09 04:05:13;;;;;;;78.22;6.28;;;;;;;;;;5052287;28;20112;-77
2023/05/09 04:07:39;;;;;;;62.35;4.90;;;;;;;;;;5052460;28;20143;-77
2023/05/09 04:10:05;;;;;;;28.83;3.85;;;;;;;;;;5050911;28;20037;-77
2023/05/09 04:12:30;;;;;;;23.20;4.28;;;;;;;;;;5051918;28;20043;-77
2023/05/09 04:14:56;;;;;;;53.10;4.78;;;;;;;;;;5052251;28;20043;-76
2023/05/09 04:17:21;;;;;;;20.95;4.43;;;;;;;;;;5052284;28;20370;-77
2023/05/09 04:19:46;;;;;;;21.58;4.80;;;;;;;;;;5047615;28;20389;-76
2023/05/09 04:22:12;;;;;;;106.00;6.20;;;;;;;;;;5051104;28;20115;-76
2023/05/09 04:24:37;;;;;;;79.35;5.95;;;;;;;;;;5051833;28;20469;-77
2023/05/09 04:27:03;;;;;;;30.45;4.97;;;;;;;;;;5052115;28;20033;-77
2023/05/09 04:29:28;;;;;;;29.42;4.72;;;;;;;;;;5051934;28;20040;-77
2023/05/09 04:31:53;;;;;;;51.95;5.53;;;;;;;;;;5051896;28;20401;-77
2023/05/09 04:34:19;;;;;;;21.63;4.70;;;;;;;;;;5052206;28;20036;-77
2023/05/09 04:36:44;;;;;;;107.22;6.20;;;;;;;;;;5052307;28;20064;-76
2023/05/09 04:39:10;;;;;;;23.77;4.55;;;;;;;;;;5051674;28;20037;-77
2023/05/09 04:41:35;;;;;;;28.00;4.70;;;;;;;;;;5050536;28;20036;-76
2023/05/09 04:44:02;;;;;;;31.25;5.18;;;;;;;;;;5051657;28;20029;-77
2023/05/09 04:46:27;;;;;;;33.78;5.22;;;;;;;;;;5050066;28;20037;-76
2023/05/09 04:48:53;;;;;;;20.15;4.68;;;;;;;;;;5051950;28;20052;-76
2023/05/09 04:51:18;;;;;;;32.78;5.45;;;;;;;;;;5046660;28;20393;-76
2023/05/09 04:53:44;;;;;;;23.55;4.43;;;;;;;;;;5052110;28;20041;-76
2023/05/09 04:56:09;;;;;;;40.78;5.90;;;;;;;;;;5050655;28;20064;-77
2023/05/09 04:58:37;;;;;;;39.00;5.10;;;;;;;;;;5054967;28;20045;-77
2023/05/09 05:01:04;;;;;;;35.83;5.57;;;;;;;;;;5055631;28;20047;-76
2023/05/09 05:03:29;;;;;;;29.70;5.65;;;;;;;;;;5055753;28;20068;-77
2023/05/09 05:05:55;;;;;;;27.58;5.32;;;;;;;;;;5055070;28;20987;-77
2023/05/09 05:08:20;;;;;;;19.17;4.88;;;;;;;;;;5055756;28;20041;-76
2023/05/09 05:10:46;;;;;;;26.63;4.63;;;;;;;;;;5055419;28;20063;-76
2023/05/09 05:13:11;;;;;;;27.40;5.05;;;;;;;;;;5055202;28;20120;-77
2023/05/09 05:15:37;;;;;;;21.35;5.80;;;;;;;;;;5055092;28;20041;-77
2023/05/09 05:18:02;;;;;;;27.83;5.60;;;;;;;;;;5055481;28;20111;-77
2023/05/09 05:20:28;;;;;;;26.50;5.95;;;;;;;;;;5048647;28;20041;-77
2023/05/09 05:22:53;;;;;;;31.50;5.85;;;;;;;;;;5055513;28;20040;-77
2023/05/09 05:25:19;;;;;;;21.65;5.72;;;;;;;;;;5054491;28;20029;-77
2023/05/09 05:27:45;;;;;;;35.83;5.75;;;;;;;;;;5054440;28;20520;-76
2023/05/09 05:30:11;;;;;;;43.42;5.78;;;;;;;;;;5055132;28;20069;-77
2023/05/09 05:32:36;;;;;;;32.20;5.88;;;;;;;;;;5055231;28;20075;-77
2023/05/09 05:35:03;;;;;;;31.65;6.05;;;;;;;;;;5053739;28;20057;-77
2023/05/09 05:37:29;;;;;;;27.00;5.70;;;;;;;;;;5053870;28;20485;-77
2023/05/09 05:39:54;;;;;;;27.02;5.75;;;;;;;;;;5053733;28;20116;-77
2023/05/09 05:42:20;;;;;;;27.27;5.90;;;;;;;;;;5054783;28;20496;-77
2023/05/09 05:44:45;;;;;;;22.75;4.70;;;;;;;;;;5054632;28;20036;-77
2023/05/09 05:47:11;;;;;;;23.30;5.45;;;;;;;;;;5054873;28;20021;-77
2023/05/09 05:49:36;;;;;;;21.27;4.72;;;;;;;;;;5054408;28;20135;-77
2023/05/09 05:52:01;;;;;;;11.13;4.60;;;;;;;;;;5049737;28;20040;-77
2023/05/09 05:54:27;;;;;;;13.23;4.53;;;;;;;;;;5044796;28;20596;-77
2023/05/09 05:56:52;;;;;;;12.25;4.70;;;;;;;;;;5054265;28;20432;-77
2023/05/09 05:59:17;;;;;;;18.13;4.78;;;;;;;;;;5052833;28;20040;-77
2023/05/09 06:01:43;;;;;;;12.18;4.68;;;;;;;;;;5051140;28;20367;-77
2023/05/09 06:04:08;;;;;;;13.15;5.00;;;;;;;;;;5054245;28;20136;-77
2023/05/09 06:06:34;;;;;;;7.53;4.45;;;;;;;;;;5049027;28;20041;-77
2023/05/09 06:08:59;;;;;;;9.60;3.80;;;;;;;;;;5052119;28;20036;-78
2023/05/09 06:11:25;;;;;;;11.85;4.85;;;;;;;;;;5050564;28;20048;-77
2023/05/09 06:13:50;;;;;;;10.43;4.38;;;;;;;;;;5054608;28;20069;-78
2023/05/09 06:16:16;;;;;;;8.50;4.45;;;;;;;;;;5054367;28;20033;-77
2023/05/09 06:18:41;;;;;;;7.60;4.20;;;;;;;;;;5054353;28;20385;-77
2023/05/09 06:21:06;;;;;;;9.40;4.75;;;;;;;;;;5053986;28;20086;-77
2023/05/09 06:23:32;;;;;;;17.00;5.40;;;;;;;;;;5054497;28;20032;-77
2023/05/09 06:25:57;;;;;;;8.98;4.93;;;;;;;;;;5054198;28;20469;-78
2023/05/09 06:28:23;;;;;;;11.15;4.97;;;;;;;;;;5063249;28;20032;-77
2023/05/09 06:30:49;;;;;;;10.90;5.40;;;;;;;;;;5054155;28;20033;-77
2023/05/09 06:33:14;;;;;;;10.82;5.00;;;;;;;;;;5052981;28;20528;-77
2023/05/09 06:35:39;;;;;;;10.60;5.53;;;;;;;;;;5054119;28;20109;-77
2023/05/09 06:38:05;;;;;;;15.05;6.20;;;;;;;;;;5052827;28;20095;-77
2023/05/09 06:40:31;;;;;;;10.00;6.15;;;;;;;;;;5053043;28;20104;-77
2023/05/09 06:42:56;;;;;;;10.88;5.78;;;;;;;;;;5052458;28;20044;-77
2023/05/09 06:45:22;;;;;;;15.70;5.53;;;;;;;;;;5053853;28;20033;-77
2023/05/09 06:47:47;;;;;;;13.05;5.60;;;;;;;;;;5053335;28;20513;-77
2023/05/09 06:50:12;;;;;;;9.10;5.95;;;;;;;;;;5053517;28;20048;-77
2023/05/09 06:52:38;;;;;;;9.55;5.25;;;;;;;;;;5053603;28;20037;-77
2023/05/09 06:55:04;;;;;;;10.15;5.65;;;;;;;;;;5053914;28;20130;-78
2023/05/09 06:57:30;;;;;;;10.38;5.57;;;;;;;;;;5051839;28;20067;-78
2023/05/09 06:59:55;;;;;;;11.13;5.10;;;;;;;;;;5045532;28;20478;-78
2023/05/09 07:02:21;;;;;;;8.98;5.45;;;;;;;;;;5051179;28;20028;-78
2023/05/09 07:04:46;;;;;;;14.57;6.13;;;;;;;;;;5053666;28;20041;-78
2023/05/09 07:07:12;;;;;;;13.10;6.68;;;;;;;;;;5052753;28;20041;-78
2023/05/09 07:09:37;;;;;;;15.27;6.70;;;;;;;;;;5053648;28;20044;-78
2023/05/09 07:12:03;;;;;;;10.65;6.70;;;;;;;;;;5052823;28;20699;-78
2023/05/09 07:14:28;;;;;;;18.58;7.38;;;;;;;;;;5052792;28;20028;-77
2023/05/09 07:16:53;;;;;;;17.00;7.60;;;;;;;;;;5053152;28;20475;-77
2023/05/09 07:19:19;;;;;;;16.25;6.82;;;;;;;;;;5051224;28;20048;-78
2023/05/09 07:21:44;;;;;;;18.33;6.35;;;;;;;;;;5052006;28;20032;-78
2023/05/09 07:24:10;;;;;;;11.73;5.68;;;;;;;;;;5053252;28;20033;-78
2023/05/09 07:26:35;;;;;;;8.00;4.55;;;;;;;;;;5053061;28;20036;-78
2023/05/09 07:29:01;;;;;;;11.35;5.93;;;;;;;;;;5051050;28;20072;-78
2023/05/09 07:31:26;;;;;;;7.07;4.22;;;;;;;;;;5051090;28;20075;-77
2023/05/09 07:33:51;;;;;;;15.30;4.10;;;;;;;;;;5053214;28;20044;-78
2023/05/09 07:36:17;;;;;;;10.60;4.93;;;;;;;;;;5052556;28;20021;-77
2023/05/09 07:38:42;;;;;;;10.60;5.07;;;;;;;;;;5052717;28;20531;-78
2023/05/09 07:41:08;;;;;;;16.90;6.47;;;;;;;;;;5052669;28;20045;-77
2023/05/09 07:43:33;;;;;;;13.98;5.32;;;;;;;;;;5051340;28;20036;-77
2023/05/09 07:45:59;;;;;;;9.90;4.38;;;;;;;;;;5051391;28;20047;-81
2023/05/09 07:48:25;;;;;;;10.02;3.45;;;;;;;;;;5045078;28;20469;-80
2023/05/09 07:50:50;;;;;;;24.13;4.60;;;;;;;;;;5052575;28;20037;-80
2023/05/09 07:53:16;;;;;;;11.82;2.83;;;;;;;;;;5052090;28;20722;-80
2023/05/09 07:55:43;;;;;;;8.07;2.38;;;;;;;;;;5051977;28;20444;-80
2023/05/09 07:58:08;;;;;;;10.93;2.85;;;;;;;;;;5048449;28;20386;-80
2023/05/09 08:00:34;;;;;;;7.53;2.58;;;;;;;;;;5036062;28;20087;-79
2023/05/09 08:02:59;;;;;;;9.18;2.50;;;;;;;;;;5049960;28;20123;-80
2023/05/09 08:05:24;;;;;;;9.63;2.47;;;;;;;;;;5048860;28;20033;-80
2023/05/09 08:07:50;;;;;;;4.90;2.20;;;;;;;;;;5049255;28;20088;-80
2023/05/09 08:10:15;;;;;;;6.75;2.60;;;;;;;;;;5049357;28;20060;-80
2023/05/09 08:12:41;;;;;;;5.60;2.13;;;;;;;;;;5049379;28;20084;-75
2023/05/09 08:15:06;;;;;;;7.82;2.28;;;;;;;;;;5049600;28;20480;-79
2023/05/09 08:17:32;;;;;;;6.88;2.35;;;;;;;;;;5048792;28;20119;-79
2023/05/09 08:19:57;;;;;;;7.72;1.95;;;;;;;;;;5048793;28;20063;-79
2023/05/09 08:22:23;;;;;;;5.70;2.20;;;;;;;;;;5048978;28;20043;-79
2023/05/09 08:24:48;;;;;;;6.43;2.03;;;;;;;;;;5046221;28;20112;-80
2023/05/09 08:27:14;;;;;;;9.55;2.30;;;;;;;;;;5049577;28;20112;-79
2023/05/09 08:29:40;;;;;;;6.13;2.20;;;;;;;;;;5048924;28;20091;-79
2023/05/09 08:32:05;;;;;;;5.95;2.03;;;;;;;;;;5050682;28;20048;-79
2023/05/09 08:34:33;;;;;;;4.82;2.10;;;;;;;;;;5047624;28;20083;-79
2023/05/09 08:36:59;;;;;;;5.07;2.05;;;;;;;;;;5051448;28;20102;-79
2023/05/09 08:39:25;;;;;;;5.07;2.00;;;;;;;;;;5052385;28;20129;-79
2023/05/09 08:41:52;;;;;;;5.60;2.28;;;;;;;;;;5053048;28;20544;-79
2023/05/09 08:44:18;;;;;;;7.15;2.10;;;;;;;;;;5050553;28;20198;-79
2023/05/09 08:46:45;;;;;;;5.18;2.03;;;;;;;;;;5050645;28;20385;-79
2023/05/09 08:49:11;;;;;;;7.63;2.20;;;;;;;;;;5050895;28;20060;-79
2023/05/09 08:51:36;;;;;;;4.68;2.05;;;;;;;;;;5034442;28;20037;-80
2023/05/09 08:54:02;;;;;;;7.28;2.20;;;;;;;;;;5049033;28;20465;-79
2023/05/09 08:56:30;;;;;;;4.60;2.10;;;;;;;;;;5049664;28;20035;-79
2023/05/09 08:58:55;;;;;;;5.25;1.95;;;;;;;;;;5051398;28;20261;-79
2023/05/09 09:01:21;;;;;;;4.05;2.10;;;;;;;;;;5051870;28;20730;-79
2023/05/09 09:03:48;;;;;;;6.63;2.13;;;;;;;;;;5050888;28;20040;-79
2023/05/09 09:06:14;;;;;;;10.32;2.72;;;;;;;;;;5050937;28;20037;-79
2023/05/09 09:08:40;;;;;;;8.55;2.78;;;;;;;;;;5050049;28;20068;-79
2023/05/09 09:11:06;;;;;;;5.82;2.70;;;;;;;;;;5050961;28;20071;-79
2023/05/09 09:13:37;;;;;;;5.65;2.75;;;;;;;;;;5050669;28;20366;-78
2023/05/09 09:16:03;;;;;;;5.25;2.47;;;;;;;;;;5049387;28;20040;-79
2023/05/09 09:18:29;;;;;;;8.23;2.40;;;;;;;;;;5044572;28;20101;-79
2023/05/09 09:21:09;;;;;;;5.63;2.50;;;;;;;;;;5045331;28;20041;-79
2023/05/09 09:23:36;;;;;;;7.25;3.28;;;;;;;;;;5048607;28;20044;-78
2023/05/09 09:26:05;;;;;;;8.30;2.95;;;;;;;;;;5047648;28;20047;-79
2023/05/09 09:28:31;;;;;;;8.13;2.72;;;;;;;;;;5048862;28;20385;-79
2023/05/09 09:30:57;;;;;;;6.15;3.03;;;;;;;;;;5035519;28;20047;-79
2023/05/09 09:33:24;;;;;;;7.55;3.17;;;;;;;;;;5042186;28;20099;-79
2023/05/09 09:35:51;;;;;;;5.53;2.50;;;;;;;;;;5048561;28;20036;-79
2023/05/09 09:38:18;;;;;;;6.57;2.80;;;;;;;;;;5021817;28;20098;-78
2023/05/09 09:40:54;;;;;;;8.68;3.28;;;;;;;;;;5048858;28;20037;-79
2023/05/09 09:43:26;;;;;;;5.45;2.60;;;;;;;;;;5043319;28;20451;-79
2023/05/09 09:45:52;;;;;;;6.55;2.42;;;;;;;;;;5042255;28;20037;-79
2023/05/09 09:48:22;;;;;;;7.15;2.92;;;;;;;;;;5048362;28;20493;-79
2023/05/09 09:50:48;;;;;;;8.10;3.13;;;;;;;;;;5046986;28;20029;-79
2023/05/09 09:53:13;;;;;;;6.68;2.65;;;;;;;;;;5049725;28;20041;-79
2023/05/09 09:55:48;;;;;;;5.35;2.80;;;;;;;;;;5049937;28;20399;-79
2023/05/09 09:58:18;;;;;;;5.40;2.80;;;;;;;;;;5047797;28;20049;-79
2023/05/09 10:00:44;;;;;;;7.47;2.67;;;;;;;;;;5050511;28;20523;-79
2023/05/09 10:03:15;;;;;;;5.15;2.63;;;;;;;;;;5051101;28;20029;-78
2023/05/09 10:05:43;;;;;;;5.05;2.67;;;;;;;;;;5049379;28;20081;-79
2023/05/09 10:08:09;;;;;;;5.82;2.50;;;;;;;;;;5049104;28;20550;-79
2023/05/09 10:10:37;;;;;;;6.38;2.15;;;;;;;;;;5049119;28;20029;-79
2023/05/09 10:13:06;;;;;;;4.55;2.17;;;;;;;;;;5050404;28;20513;-79
2023/05/09 10:15:34;;;;;;;7.32;2.95;;;;;;;;;;5040917;28;20032;-79
2023/05/09 10:18:03;;;;;;;7.93;2.60;;;;;;;;;;5050090;28;20131;-79
2023/05/09 10:20:29;;;;;;;5.78;2.35;;;;;;;;;;5050386;28;20029;-80
2023/05/09 10:22:56;;;;;;;4.13;2.30;;;;;;;;;;5045192;28;20127;-79
2023/05/09 10:25:31;;;;;;;3.58;1.92;;;;;;;;;;5048751;28;20445;-79
2023/05/09 10:27:59;;;;;;;4.70;2.28;;;;;;;;;;5050180;28;20119;-79
2023/05/09 10:30:32;;;;;;;5.45;1.95;;;;;;;;;;5045234;28;20044;-79
2023/05/09 10:33:06;;;;;;;4.38;2.40;;;;;;;;;;5049087;28;20041;-79
2023/05/09 10:35:50;;;;;;;4.05;2.20;;;;;;;;;;5041904;28;20044;-79
2023/05/09 10:38:17;;;;;;;5.20;2.90;;;;;;;;;;5044447;28;20397;-79
2023/05/09 10:40:46;;;;;;;4.00;2.10;;;;;;;;;;5050974;28;20079;-79
2023/05/09 10:43:12;;;;;;;6.03;1.70;;;;;;;;;;5048973;28;20132;-79
2023/05/09 10:45:37;;;;;;;3.75;1.60;;;;;;;;;;5050142;28;20100;-79
2023/05/09 10:48:05;;;;;;;4.05;2.00;;;;;;;;;;5048829;28;20115;-79
2023/05/09 10:50:31;;;;;;;5.07;2.00;;;;;;;;;;5048287;28;20048;-78
2023/05/09 10:53:07;;;;;;;8.88;4.00;;;;;;;;;;5049305;28;20033;-79
2023/05/09 10:55:36;;;;;;;5.65;3.38;;;;;;;;;;5049243;28;20044;-78
2023/05/09 10:58:39;;;;;;;3.95;1.70;;;;;;;;;;5048285;28;20095;-79
2023/05/09 11:01:05;;;;;;;5.03;1.95;;;;;;;;;;5044242;28;20066;-78
2023/05/09 11:03:52;;;;;;;5.20;2.63;;;;;;;;;;5045317;28;20412;-78
2023/05/09 11:06:50;;;;;;;5.20;1.85;;;;;;;;;;5049574;28;20047;-79
2023/05/09 11:09:37;;;;;;;4.53;2.00;;;;;;;;;;5049179;28;20473;-79
2023/05/09 11:12:05;;;;;;;5.43;2.00;;;;;;;;;;5046065;28;20063;-78
2023/05/09 11:14:48;;;;;;;4.90;1.70;;;;;;;;;;5049822;28;20040;-79
2023/05/09 11:17:19;;;;;;;3.85;2.08;;;;;;;;;;5065011;28;20044;-78
2023/05/09 11:19:45;;;;;;;7.75;2.10;;;;;;;;;;5048504;28;20385;-79
2023/05/09 11:22:12;;;;;;;4.07;2.20;;;;;;;;;;5049280;28;20049;-79
2023/05/09 11:24:38;;;;;;;4.78;2.03;;;;;;;;;;5049286;28;20060;-79
2023/05/09 11:27:25;;;;;;;2.83;1.80;;;;;;;;;;5047870;28;20047;-79
2023/05/09 11:29:53;;;;;;;5.40;2.40;;;;;;;;;;5040039;28;20128;-79
2023/05/09 11:32:26;;;;;;;5.25;2.50;;;;;;;;;;5047619;28;20036;-79
2023/05/09 11:34:51;;;;;;;4.53;2.30;;;;;;;;;;5048444;28;20033;-79
2023/05/09 11:37:18;;;;;;;6.43;2.33;;;;;;;;;;5048407;28;20044;-79
2023/05/09 11:39:57;;;;;;;4.10;1.70;;;;;;;;;;5048789;28;20549;-79
2023/05/09 11:42:26;;;;;;;5.22;2.72;;;;;;;;;;5048636;28;20065;-79
2023/05/09 11:44:52;;;;;;;7.30;2.50;;;;;;;;;;5047714;28;20091;-78
2023/05/09 11:47:18;;;;;;;3.30;1.50;;;;;;;;;;5049109;28;20473;-79
2023/05/09 11:49:44;;;;;;;4.88;2.05;;;;;;;;;;5047296;28;20860;-79
2023/05/09 11:52:10;;;;;;;5.05;2.63;;;;;;;;;;5044619;28;20044;-79
2023/05/09 11:54:39;;;;;;;4.50;2.40;;;;;;;;;;5048010;28;20541;-79
2023/05/09 11:57:05;;;;;;;5.32;2.53;;;;;;;;;;5047473;28;20158;-79
2023/05/09 11:59:30;;;;;;;6.05;1.80;;;;;;;;;;5048864;28;20124;-78
2023/05/09 12:01:56;;;;;;;5.60;1.90;;;;;;;;;;5049025;28;20124;-79
2023/05/09 12:04:21;;;;;;;4.82;1.63;;;;;;;;;;5048362;28;20542;-79
2023/05/09 12:06:48;;;;;;;3.85;2.17;;;;;;;;;;5047006;28;20040;-79
2023/05/09 12:09:15;;;;;;;4.18;1.88;;;;;;;;;;5048375;28;20037;-79
2023/05/09 12:11:49;;;;;;;2.88;1.50;;;;;;;;;;5048911;28;20056;-78
2023/05/09 12:14:27;;;;;;;5.43;1.40;;;;;;;;;;5047343;28;20057;-79
2023/05/09 12:16:53;;;;;;;2.22;1.25;;;;;;;;;;5047692;28;20065;-80
2023/05/09 12:19:18;;;;;;;3.45;1.67;;;;;;;;;;5034836;28;20125;-79
2023/05/09 12:21:44;;;;;;;2.72;1.30;;;;;;;;;;5041610;28;20041;-79
2023/05/09 12:24:09;;;;;;;2.78;1.10;;;;;;;;;;5036489;28;20453;-81
2023/05/09 12:26:35;;;;;;;3.28;1.15;;;;;;;;;;5030648;28;20041;-80
2023/05/09 12:29:00;;;;;;;2.80;1.20;;;;;;;;;;5045769;28;20043;-80
2023/05/09 12:31:26;;;;;;;2.53;1.23;;;;;;;;;;5043016;28;20029;-80
2023/05/09 12:33:52;;;;;;;3.88;1.20;;;;;;;;;;5045701;28;20377;-80
2023/05/09 12:36:17;;;;;;;7.70;1.30;;;;;;;;;;5038987;28;20451;-79
2023/05/09 12:38:55;;;;;;;3.97;1.52;;;;;;;;;;5043729;28;20047;-81
2023/05/09 12:41:21;;;;;;;3.38;1.40;;;;;;;;;;5036094;28;20046;-81
2023/05/09 12:43:48;;;;;;;3.55;1.70;;;;;;;;;;5041971;28;20079;-79
2023/05/09 12:46:17;;;;;;;4.40;1.80;;;;;;;;;;5044831;28;20040;-80
2023/05/09 12:48:43;;;;;;;3.58;1.60;;;;;;;;;;5044518;28;20550;-80
2023/05/09 12:51:09;;;;;;;3.60;1.90;;;;;;;;;;5033288;28;20114;-79
2023/05/09 12:53:39;;;;;;;4.47;2.70;;;;;;;;;;5041595;28;20134;-80
2023/05/09 12:56:17;;;;;;;8.65;4.00;;;;;;;;;;5044850;28;20041;-80
2023/05/09 12:58:50;;;;;;;10.57;6.38;;;;;;;;;;5032727;28;20325;-80
2023/05/09 13:01:16;;;;;;;3.20;1.90;;;;;;;;;;5029294;28;20048;-80
2023/05/09 13:03:42;;;;;;;4.00;2.05;;;;;;;;;;4998328;28;20050;-80
2023/05/09 13:06:12;;;;;;;5.95;1.75;;;;;;;;;;4986274;28;20383;-80
2023/05/09 13:08:37;;;;;;;5.18;1.70;;;;;;;;;;4987333;28;20074;-80
2023/05/09 13:11:04;;;;;;;5.03;1.40;;;;;;;;;;4988217;28;20065;-80
2023/05/09 13:13:30;;;;;;;3.13;1.55;;;;;;;;;;4986392;28;20113;-80
2023/05/09 13:15:56;;;;;;;3.65;2.00;;;;;;;;;;4987723;28;20038;-81
2023/05/09 13:18:23;;;;;;;3.08;1.88;;;;;;;;;;4989021;28;20112;-80
2023/05/09 13:20:49;;;;;;;3.45;1.52;;;;;;;;;;4989386;28;20042;-80
2023/05/09 13:23:14;;;;;;;3.47;1.40;;;;;;;;;;4987771;28;20034;-80
2023/05/09 13:25:40;;;;;;;3.08;1.38;;;;;;;;;;4988843;28;20789;-79
2023/05/09 13:28:06;;;;;;;4.65;1.55;;;;;;;;;;4992016;28;20030;-80
2023/05/09 13:30:31;;;;;;;3.10;1.38;;;;;;;;;;4987985;28;20388;-80
2023/05/09 13:32:56;;;;;;;3.97;1.73;;;;;;;;;;4986973;28;20795;-80
2023/05/09 13:35:22;;;;;;;3.97;1.35;;;;;;;;;;4991984;28;20375;-80
2023/05/09 13:37:48;;;;;;;2.97;1.60;;;;;;;;;;4991509;28;20068;-80
2023/05/09 13:40:13;;;;;;;3.60;1.50;;;;;;;;;;4991787;28;20043;-80
2023/05/09 13:42:39;;;;;;;3.05;1.48;;;;;;;;;;4992179;28;20518;-80
2023/05/09 13:45:04;;;;;;;6.00;1.92;;;;;;;;;;4991910;28;20041;-80
2023/05/09 13:47:30;;;;;;;4.35;2.15;;;;;;;;;;4991198;28;20045;-80
2023/05/09 13:49:55;;;;;;;4.18;1.88;;;;;;;;;;4991641;28;20041;-80
2023/05/09 13:52:22;;;;;;;4.40;2.25;;;;;;;;;;4991618;28;20134;-80
2023/05/09 13:54:47;;;;;;;3.42;1.55;;;;;;;;;;4991612;28;20038;-80
2023/05/09 13:57:12;;;;;;;5.28;1.83;;;;;;;;;;4991205;28;20060;-80
2023/05/09 13:59:40;;;;;;;6.30;1.60;;;;;;;;;;4990457;28;20040;-80
2023/05/09 14:02:06;;;;;;;5.30;1.10;;;;;;;;;;4990040;28;20156;-79
2023/05/09 14:04:31;;;;;;;4.13;1.02;;;;;;;;;;4989773;28;20141;-80
2023/05/09 14:06:57;;;;;;;2.67;1.05;;;;;;;;;;4988050;28;20474;-80
2023/05/09 14:09:23;;;;;;;5.85;1.20;;;;;;;;;;4987500;28;20144;-79
2023/05/09 14:11:52;;;;;;;5.38;1.20;;;;;;;;;;4984133;28;20038;-79
2023/05/09 14:14:18;;;;;;;4.20;1.00;;;;;;;;;;4990370;28;20500;-79
2023/05/09 14:16:43;;;;;;;4.38;0.90;;;;;;;;;;4991007;28;20104;-80
2023/05/09 14:19:09;;;;;;;3.65;1.23;;;;;;;;;;4989720;28;20466;-80
2023/05/09 14:21:34;;;;;;;3.75;1.15;;;;;;;;;;4991591;28;20042;-79
2023/05/09 14:24:00;;;;;;;7.97;1.60;;;;;;;;;;4991534;28;20045;-79
2023/05/09 14:26:28;;;;;;;11.88;2.00;;;;;;;;;;4990589;28;20038;-80
2023/05/09 14:28:54;;;;;;;36.22;2.35;;;;;;;;;;4990640;28;20034;-81
2023/05/09 14:31:19;;;;;;;78.05;4.28;;;;;;;;;;4989477;28;20038;-81
2023/05/09 14:33:44;;;;;;;8.60;1.65;;;;;;;;;;4990460;28;20041;-81
2023/05/09 14:36:10;;;;;;;12.02;1.80;;;;;;;;;;4991269;28;20461;-80